Latest Weather Observations for Newman Airport

IDW60801

Issued at 11:02 pm WST Wednesday 4 March 2015 (issued every 30 minutes, with the page automatically refreshed every 10 minutes)

About weather observations | Map of weather stations | Latest weather observations for WA | Other Formats
Station Details ID: 007176 Name: NEWMAN AERO Lat: -23.42 Lon: 119.80 Height: 524.0 m
Data from the previous 72 hours. | See also: Recent months at Newman Airport
Date/Time
WST
Temp
°C
App
Temp
°C
Dew
Point
Rel
Hum
%
Delta-T
°C
Wind Press
QNH
hPa
Press
MSL
hPa
Rain
since 9 am
mm
Dir
 
Spd
km/h
Gust
km/h
Spd
kts
Gust
kts
04/11:00pm 22.5 19.7 14.4 60 4.9 SE 22 33 12 18 1016.7 1012.9 9.2
04/10:30pm 22.7 20.6 14.8 61 4.8 SE 19 30 10 16 1017.2 1013.4 9.2
04/10:00pm 23.1 19.5 15.2 61 4.8 SE 28 37 15 20 1017.2 1013.4 9.2
04/09:30pm 23.6 21.8 15.9 62 4.8 SE 20 33 11 18 1017.0 1013.2 9.2
04/09:00pm 23.5 22.3 17.0 67 4.1 SSE 19 26 10 14 1016.9 1013.1 9.2
04/08:30pm 23.5 22.7 17.0 67 4.1 SSE 17 20 9 11 1016.4 1012.6 9.2
04/08:00pm 23.5 23.5 17.3 68 3.9 S 13 20 7 11 1016.2 1012.4 9.2
04/07:30pm 23.6 23.3 17.3 67 4.0 S 15 20 8 11 1015.8 1011.9 9.2
04/07:00pm 23.8 23.5 17.3 67 4.1 S 15 20 8 11 1015.5 1011.6 9.2
04/06:30pm 24.1 23.4 17.4 66 4.3 S 17 24 9 13 1014.9 1011.1 9.2
04/06:00pm 24.6 23.2 17.1 63 4.7 S 20 30 11 16 1014.4 1010.6 9.2
04/05:30pm 25.2 23.8 16.9 60 5.2 S 20 28 11 15 1013.9 1010.0 9.2
04/05:00pm 25.7 24.5 17.6 61 5.2 S 20 30 11 16 1014.3 1010.5 9.2
04/04:30pm 25.8 24.1 17.2 59 5.5 S 22 30 12 16 1014.2 1010.4 9.2
04/04:00pm 26.0 24.4 17.4 59 5.5 S 22 30 12 16 1014.2 1010.4 9.2
04/03:30pm 24.8 23.0 17.0 62 4.9 S 22 30 12 16 1014.3 1010.5 9.2
04/03:00pm 24.1 22.9 17.6 67 4.1 S 20 28 11 15 1014.4 1010.6 9.2
04/02:30pm 23.2 22.1 17.2 69 3.8 S 19 28 10 15 1014.5 1010.7 9.2
04/02:00pm 22.8 22.6 17.5 72 3.4 S 15 22 8 12 1014.8 1011.0 9.2
04/01:30pm 21.8 20.8 17.6 77 2.7 S 19 26 10 14 1015.0 1011.2 9.2
04/01:00pm 21.7 23.3 16.9 74 3.0 SE 4 11 2 6 1016.8 1013.0 6.4
04/12:30pm 21.3 20.3 16.5 74 3.0 SE 17 22 9 12 1016.2 1012.4 4.8
04/12:00pm 22.5 22.4 17.0 71 3.4 SE 13 24 7 13 1016.7 1012.9 2.2
04/11:30am 23.1 22.1 16.6 67 4.1 SE 17 28 9 15 1016.8 1013.0 1.8
04/11:00am 23.2 21.7 16.7 67 4.1 SSE 20 30 11 16 1016.7 1012.9 1.8
04/10:30am 22.2 20.7 16.7 71 3.4 SSE 20 30 11 16 1017.0 1013.2 1.8
04/10:00am 20.9 19.5 16.5 76 2.7 SSE 19 24 10 13 1017.2 1013.4 1.8
04/09:30am 20.7 20.7 16.3 76 2.7 SSE 11 15 6 8 1018.1 1014.3 0.2
04/09:00am 20.4 19.2 16.0 76 2.7 S 17 22 9 12 1017.7 1013.9 15.4
04/08:30am 20.4 19.6 16.0 76 2.7 S 15 19 8 10 1017.5 1013.6 14.8
04/08:00am 20.8 19.5 15.8 73 3.1 SE 17 26 9 14 1017.4 1013.5 13.8
04/07:30am 21.2 20.0 16.0 72 3.2 SSE 17 22 9 12 1016.6 1012.8 13.6
04/07:00am 21.2 19.7 16.2 73 3.1 SSE 19 26 10 14 1016.1 1012.3 13.6
04/06:30am 21.3 19.6 16.3 73 3.1 SSE 20 30 11 16 1015.6 1011.7 13.6
04/06:00am 21.1 20.8 16.5 75 2.8 SSE 13 19 7 10 1016.0 1012.2 13.6
04/05:30am 21.0 20.5 16.8 77 2.6 SSW 15 20 8 11 1014.9 1011.1 13.6
04/05:00am 21.2 20.7 17.0 77 2.6 S 15 20 8 11 1014.7 1010.9 13.4
04/04:30am 21.4 22.1 17.0 76 2.7 SSE 9 15 5 8 1015.6 1011.7 13.4
04/04:00am 21.5 21.9 17.3 77 2.6 E 11 15 6 8 1015.0 1011.2 13.4
04/03:30am 21.6 23.0 17.4 77 2.6 SE 6 9 3 5 1014.6 1010.8 13.4
04/03:00am 21.6 22.8 17.4 77 2.6 ESE 7 11 4 6 1014.4 1010.6 13.2
04/02:30am 21.7 21.7 17.3 76 2.8 SE 13 20 7 11 1014.0 1010.1 12.6
04/02:00am 22.3 21.8 17.7 75 2.9 ESE 17 24 9 13 1014.1 1010.2 11.0
04/01:30am 22.6 19.9 17.5 73 3.2 ENE 28 41 15 22 1014.3 1010.5 4.0
04/01:00am 25.9 24.5 17.0 58 5.6 ESE 20 33 11 18 1013.4 1009.5 0.0
04/12:30am 26.2 23.7 17.0 57 5.8 ESE 26 35 14 19 1013.0 1009.2 0.0
04/12:00am 26.6 23.5 17.4 57 5.9 SE 30 44 16 24 1013.1 1009.3 0.0
 
Date/Time
WST
Temp
°C
App
Temp
°C
Dew
Point
Rel
Hum
%
Delta-T
°C
Wind Press
QNH
hPa
Press
MSL
hPa
Rain
since 9 am
mm
Dir
 
Spd
km/h
Gust
km/h
Spd
kts
Gust
kts
03/11:30pm 26.9 25.7 17.4 56 6.1 SE 20 32 11 17 1013.0 1009.2 0.0
03/11:00pm 27.4 25.7 17.3 54 6.5 SE 22 32 12 17 1012.8 1009.0 0.0
03/10:30pm 27.6 27.2 18.0 55 6.2 SE 17 20 9 11 1012.8 1009.0 0.0
03/10:00pm 27.9 27.6 18.3 56 6.3 SE 17 22 9 12 1013.0 1009.2 0.0
03/09:30pm 28.0 28.6 18.7 57 6.1 SSE 13 17 7 9 1013.0 1009.2 0.0
03/09:00pm 28.3 29.3 18.7 56 6.3 SE 11 15 6 8 1013.1 1009.3 0.0
03/08:30pm 28.7 29.4 18.8 55 6.5 E 13 17 7 9 1013.0 1009.2 0.0
03/08:00pm 28.8 - 18.9 55 6.5 - - - - - 1012.6 1008.8 -
03/07:30pm 29.2 - 18.6 52 7.0 - - - - - 1012.2 - -
03/07:00pm 29.6 - 18.4 51 7.3 - - - - - 1011.7 1007.8 -
03/06:30pm 29.9 - 18.3 49 7.6 - - - - - 1011.0 - -
03/06:00pm 30.3 - 18.4 49 7.8 - - - - - 1010.4 1006.5 -
03/05:30pm 30.5 - 18.2 47 8.1 - - - - - 1010.1 - -
03/05:00pm 30.7 29.6 17.4 45 8.6 ENE 19 28 10 15 1010.3 1006.4 0.0
03/04:30pm 31.2 30.4 17.1 42 9.1 ENE 17 26 9 14 1010.4 1006.5 0.0
03/04:00pm 31.9 31.5 18.1 43 9.1 E 17 26 9 14 1010.4 1006.5 0.0
03/03:30pm 31.7 - 18.3 45 8.8 - - - - - 1010.3 - -
03/03:00pm 31.5 - 18.5 46 8.6 - - - - - 1010.4 1006.5 0.0
03/02:30pm 31.2 - 18.5 46 8.4 - - - - - 1010.8 - -
03/02:00pm 30.7 - 18.8 49 7.9 - - - - - 1011.4 1007.5 -
03/01:30pm 30.1 - 18.8 50 7.5 - - - - - 1012.0 - -
03/01:00pm 29.7 - 18.5 51 7.4 - - - - - 1012.6 1008.8 -
03/12:30pm 29.6 - 19.0 53 7.0 - - - - - 1012.9 - -
03/12:00pm 29.1 - 18.8 53 6.8 - - - - - 1013.2 1009.4 -
03/11:30am 28.4 - 18.2 54 6.6 - - - - - 1013.2 - -
03/11:00am 28.1 - 18.8 57 6.1 - - - - - 1013.6 1009.7 -
03/10:30am 27.6 - 18.3 57 6.0 - - - - - 1013.9 - -
03/10:00am 26.8 26.8 18.9 62 5.2 ENE 17 26 9 14 1014.1 1010.2 0.0
03/09:30am 26.4 26.0 18.0 60 5.4 E 17 24 9 13 1014.1 1010.2 0.0
03/09:00am 25.6 25.2 18.0 63 4.9 E 17 24 9 13 1014.1 1010.2 31.6
03/08:30am 25.1 24.7 18.1 65 4.5 E 17 22 9 12 1013.8 1009.9 31.6
03/08:00am 24.8 24.5 18.3 67 4.2 E 17 20 9 11 1013.5 1009.6 31.6
03/07:30am 23.9 24.1 18.5 72 3.5 E 15 20 8 11 1013.2 1009.4 31.6
03/07:00am 23.6 25.0 18.7 74 3.2 ENE 9 11 5 6 1012.8 1009.0 31.6
03/06:30am 22.7 24.6 18.5 77 2.7 NE 6 7 3 4 1012.6 1008.8 31.6
03/06:00am 22.7 25.7 18.5 77 2.7 CALM 0 0 0 0 1012.3 1008.4 31.6
03/05:30am 22.6 23.9 18.4 77 2.7 ENE 9 11 5 6 1011.8 1007.9 31.6
03/05:00am 22.7 24.3 18.3 76 2.8 E 7 11 4 6 1011.5 1007.6 31.6
03/04:30am 22.8 23.9 18.1 75 3.0 E 9 13 5 7 1011.5 1007.6 31.6
03/04:00am 23.0 24.2 18.3 75 3.0 E 9 11 5 6 1011.4 1007.5 31.6
03/03:30am 23.2 23.8 18.7 76 2.9 ENE 13 17 7 9 1011.2 1007.4 31.6
03/03:00am 23.6 24.3 18.9 75 3.0 E 13 17 7 9 1011.4 1007.5 31.6
03/02:30am 23.7 27.0 19.2 76 2.9 CALM 0 0 0 0 1011.2 1007.4 31.6
03/02:00am 23.8 27.3 19.5 77 2.8 CALM 0 0 0 0 1011.2 1007.4 31.6
03/01:30am 23.7 27.0 19.2 76 2.9 CALM 0 0 0 0 1011.2 1007.4 31.4
03/01:00am 23.6 26.9 19.1 76 2.9 CALM 0 0 0 0 1011.2 1007.4 31.4
03/12:30am 23.7 26.6 19.0 75 3.1 N 2 7 1 4 1011.5 1007.6 31.4
03/12:00am 23.8 25.5 19.3 76 2.9 NNW 9 11 5 6 1011.8 1007.9 31.4
 
Date/Time
WST
Temp
°C
App
Temp
°C
Dew
Point
Rel
Hum
%
Delta-T
°C
Wind Press
QNH
hPa
Press
MSL
hPa
Rain
since 9 am
mm
Dir
 
Spd
km/h
Gust
km/h
Spd
kts
Gust
kts
02/11:30pm 23.9 26.1 19.6 77 2.8 WNW 7 11 4 6 1012.0 1008.1 31.2
02/11:00pm 23.8 25.9 19.3 76 2.9 ENE 7 11 4 6 1011.8 1007.9 31.2
02/10:30pm 23.9 25.2 19.4 76 2.9 ESE 11 15 6 8 1011.6 1007.7 31.2
02/10:00pm 25.2 26.6 18.6 67 4.3 NE 9 13 5 7 1011.5 1007.6 29.0
02/09:30pm 24.8 - 18.7 69 4.0 - - - - - 1011.0 - -
02/09:00pm 25.4 - 19.3 69 4.0 - - - - - 1010.9 1007.1 0.2
02/08:30pm 26.3 - 20.4 70 3.9 - - - - - 1010.6 - -
02/08:00pm 26.3 - 20.2 69 4.1 - - - - - 1010.1 1006.2 -
02/07:30pm 26.6 - 20.2 68 4.3 - - - - - 1009.9 - -
02/07:00pm 27.2 - 19.5 62 5.1 - - - - - 1009.0 1005.2 -
02/06:30pm 27.5 - 19.6 62 5.2 - - - - - 1008.6 - -
02/06:00pm 28.0 28.8 19.0 58 5.9 SE 13 20 7 11 1008.5 1004.6 28.8
02/05:30pm 29.2 29.2 18.9 53 6.8 S 17 22 9 12 1007.5 1003.6 28.8
02/05:00pm 29.9 30.2 18.7 51 7.4 S 15 22 8 12 1007.4 1003.5 28.8
02/04:30pm 30.1 30.7 18.5 49 7.6 S 13 17 7 9 1007.4 1003.5 28.8
02/04:00pm 29.4 - 18.8 53 7.0 - - - - - 1007.5 1003.6 -
02/03:30pm 29.3 - 19.0 53 6.8 - - - - - 1007.1 - -
02/03:00pm 27.1 - 18.7 60 5.5 - - - - - 1007.0 1003.1 29.0
02/02:30pm 25.5 - 19.2 68 4.1 - - - - - 1007.8 - -
02/02:00pm 24.3 - 19.1 73 3.4 - - - - - 1008.0 1004.1 -
02/01:30pm 21.8 - 17.6 77 2.7 - - - - - 1009.8 - -
02/01:00pm 21.8 21.0 17.2 75 2.9 SW 17 32 9 17 1010.1 1006.2 27.2
02/12:30pm 23.6 21.6 18.3 72 3.4 WNW 26 54 14 29 1009.5 1005.6 2.4
02/12:28pm 25.2 24.3 19.1 69 4.0 W 22 39 12 21 1009.3 1005.4 0.4
02/12:00pm 30.6 30.9 19.6 51 7.4 S 17 20 9 11 1008.7 1004.8 0.0
02/11:30am 31.1 31.6 20.1 52 7.4 S 17 24 9 13 1009.5 1005.6 0.0
02/11:00am 30.6 31.8 19.9 52 7.2 S 13 22 7 12 1010.2 1006.3 0.0
02/10:30am 30.0 31.6 19.1 52 7.2 SSW 9 17 5 9 1010.7 1006.9 0.0
02/10:00am 29.9 30.8 19.3 53 7.0 S 13 20 7 11 1010.9 1007.1 0.0
02/09:30am 28.6 30.0 19.5 58 6.0 SW 11 20 6 11 1011.0 1007.2 0.0
02/09:00am 28.5 29.6 19.7 59 5.9 WSW 13 19 7 10 1011.0 1007.2 0.2
02/08:30am 27.7 - 19.5 61 5.4 - - - - - 1010.7 - -
02/08:00am 26.8 - 19.4 64 4.9 - - - - - 1010.2 1006.3 -
02/07:30am 25.7 - 19.6 69 4.0 - - - - - 1010.0 - -
02/07:00am 24.8 28.1 19.2 71 3.7 CALM 0 0 0 0 1009.9 1006.0 0.2
02/06:30am 23.9 27.2 19.2 75 3.1 CALM 0 0 0 0 1009.8 1005.9 0.2
02/06:00am 23.9 27.2 19.0 74 3.2 CALM 0 0 0 0 1009.5 1005.6 0.2
02/05:30am 24.0 27.2 18.9 73 3.3 CALM 0 0 0 0 1009.0 1005.2 0.2
02/05:00am 24.1 27.2 18.7 72 3.5 CALM 0 0 0 0 1008.8 1004.9 0.2
02/04:30am 24.1 27.2 18.7 72 3.5 CALM 0 0 0 0 1008.6 1004.7 0.2
02/04:00am 24.4 27.5 18.6 70 3.8 CALM 0 0 0 0 1008.5 1004.6 0.2
02/03:30am 24.4 27.3 18.3 69 3.9 CALM 0 0 0 0 1008.5 1004.6 0.2
02/03:00am 24.5 27.5 18.4 69 3.9 CALM 0 0 0 0 1008.4 1004.5 0.2
02/02:30am 24.5 27.6 18.7 70 3.8 CALM 0 0 0 0 1008.4 1004.5 0.2
02/02:00am 24.5 27.6 18.7 70 3.8 CALM 0 0 0 0 1008.7 1004.8 0.2
02/01:30am 24.5 27.5 18.4 69 3.9 CALM 0 0 0 0 1008.9 1005.0 0.2
02/01:00am 24.3 27.2 18.2 68 3.9 CALM 0 0 0 0 1009.3 1005.4 0.2
02/12:30am 24.1 27.1 18.5 71 3.6 CALM 0 0 0 0 1009.6 1005.7 0.2
02/12:00am 24.2 27.2 18.4 70 3.7 CALM 0 0 0 0 1009.6 1005.7 0.2
 
Date/Time
WST
Temp
°C
App
Temp
°C
Dew
Point
Rel
Hum
%
Delta-T
°C
Wind Press
QNH
hPa
Press
MSL
hPa
Rain
since 9 am
mm
Dir
 
Spd
km/h
Gust
km/h
Spd
kts
Gust
kts
01/11:30pm 24.1 27.1 18.5 71 3.6 CALM 0 0 0 0 1009.6 1005.7 0.2

Other Formats:

Comma delimited format used in spreadsheet applications
http://www.bom.gov.au/fwo/IDW60801/IDW60801.94317.axf

JavaScript Object Notation format (JSON) in row-major order
http://www.bom.gov.au/fwo/IDW60801/IDW60801.94317.json